sensor_id;sensor_type;location;lat;lon;timestamp;P1;durP1;ratioP1;P2;durP2;ratioP2
60169;SDS011;46042;49.444;6.862;2023-09-12T00:00:45;20.35;;;9.85;;
60169;SDS011;46042;49.444;6.862;2023-09-12T00:03:11;24.75;;;10.13;;
60169;SDS011;46042;49.444;6.862;2023-09-12T00:05:39;26.88;;;10.88;;
60169;SDS011;46042;49.444;6.862;2023-09-12T00:08:06;25.10;;;10.07;;
60169;SDS011;46042;49.444;6.862;2023-09-12T00:10:32;20.35;;;9.10;;
60169;SDS011;46042;49.444;6.862;2023-09-12T00:12:59;20.23;;;9.93;;
60169;SDS011;46042;49.444;6.862;2023-09-12T00:15:27;17.63;;;10.05;;
60169;SDS011;46042;49.444;6.862;2023-09-12T00:17:54;21.30;;;9.88;;
60169;SDS011;46042;49.444;6.862;2023-09-12T00:20:21;18.42;;;9.57;;
60169;SDS011;46042;49.444;6.862;2023-09-12T00:22:47;19.00;;;8.88;;
60169;SDS011;46042;49.444;6.862;2023-09-12T00:25:14;14.23;;;8.80;;
60169;SDS011;46042;49.444;6.862;2023-09-12T00:27:40;17.25;;;9.52;;
60169;SDS011;46042;49.444;6.862;2023-09-12T00:30:07;20.98;;;9.48;;
60169;SDS011;46042;49.444;6.862;2023-09-12T00:32:34;22.23;;;9.70;;
60169;SDS011;46042;49.444;6.862;2023-09-12T00:35:01;20.48;;;9.43;;
60169;SDS011;46042;49.444;6.862;2023-09-12T00:37:27;20.75;;;9.25;;
60169;SDS011;46042;49.444;6.862;2023-09-12T00:39:54;17.73;;;9.15;;
60169;SDS011;46042;49.444;6.862;2023-09-12T00:42:21;18.08;;;9.27;;
60169;SDS011;46042;49.444;6.862;2023-09-12T00:44:47;17.05;;;10.02;;
60169;SDS011;46042;49.444;6.862;2023-09-12T00:47:14;20.63;;;10.07;;
60169;SDS011;46042;49.444;6.862;2023-09-12T00:49:41;16.60;;;8.77;;
60169;SDS011;46042;49.444;6.862;2023-09-12T00:52:09;17.17;;;8.73;;
60169;SDS011;46042;49.444;6.862;2023-09-12T00:54:37;18.33;;;9.45;;
60169;SDS011;46042;49.444;6.862;2023-09-12T00:57:04;19.63;;;9.05;;
60169;SDS011;46042;49.444;6.862;2023-09-12T00:59:31;16.17;;;8.90;;
60169;SDS011;46042;49.444;6.862;2023-09-12T01:01:58;19.75;;;9.68;;
60169;SDS011;46042;49.444;6.862;2023-09-12T01:04:26;18.02;;;9.52;;
60169;SDS011;46042;49.444;6.862;2023-09-12T01:07:00;16.10;;;9.27;;
60169;SDS011;46042;49.444;6.862;2023-09-12T01:09:28;20.58;;;9.10;;
60169;SDS011;46042;49.444;6.862;2023-09-12T01:11:55;20.98;;;10.13;;
60169;SDS011;46042;49.444;6.862;2023-09-12T01:14:22;13.30;;;8.15;;
60169;SDS011;46042;49.444;6.862;2023-09-12T01:16:49;19.60;;;9.50;;
60169;SDS011;46042;49.444;6.862;2023-09-12T01:19:16;17.25;;;9.20;;
60169;SDS011;46042;49.444;6.862;2023-09-12T01:27:35;27.23;;;9.82;;
60169;SDS011;46042;49.444;6.862;2023-09-12T01:30:05;17.92;;;10.52;;
60169;SDS011;46042;49.444;6.862;2023-09-12T01:32:34;20.60;;;10.38;;
60169;SDS011;46042;49.444;6.862;2023-09-12T01:35:01;26.65;;;10.25;;
60169;SDS011;46042;49.444;6.862;2023-09-12T01:37:31;16.02;;;8.77;;
60169;SDS011;46042;49.444;6.862;2023-09-12T01:39:58;19.83;;;9.55;;
60169;SDS011;46042;49.444;6.862;2023-09-12T01:42:26;22.05;;;9.98;;
60169;SDS011;46042;49.444;6.862;2023-09-12T01:44:56;16.65;;;9.63;;
60169;SDS011;46042;49.444;6.862;2023-09-12T01:47:24;23.45;;;10.38;;
60169;SDS011;46042;49.444;6.862;2023-09-12T01:49:52;16.10;;;10.30;;
60169;SDS011;46042;49.444;6.862;2023-09-12T01:52:23;24.58;;;10.80;;
60169;SDS011;46042;49.444;6.862;2023-09-12T01:54:51;18.40;;;9.05;;
60169;SDS011;46042;49.444;6.862;2023-09-12T01:57:19;18.00;;;10.13;;
60169;SDS011;46042;49.444;6.862;2023-09-12T01:59:50;20.98;;;9.70;;
60169;SDS011;46042;49.444;6.862;2023-09-12T02:02:16;23.40;;;9.90;;
60169;SDS011;46042;49.444;6.862;2023-09-12T02:04:46;26.13;;;9.95;;
60169;SDS011;46042;49.444;6.862;2023-09-12T02:07:22;17.08;;;9.75;;
60169;SDS011;46042;49.444;6.862;2023-09-12T02:09:50;18.27;;;9.65;;
60169;SDS011;46042;49.444;6.862;2023-09-12T02:12:16;20.27;;;10.10;;
60169;SDS011;46042;49.444;6.862;2023-09-12T02:14:43;18.00;;;9.05;;
60169;SDS011;46042;49.444;6.862;2023-09-12T02:17:10;19.95;;;10.60;;
60169;SDS011;46042;49.444;6.862;2023-09-12T02:19:37;17.80;;;9.98;;
60169;SDS011;46042;49.444;6.862;2023-09-12T02:22:04;17.10;;;9.65;;
60169;SDS011;46042;49.444;6.862;2023-09-12T02:24:30;18.52;;;10.25;;
60169;SDS011;46042;49.444;6.862;2023-09-12T02:27:01;19.17;;;9.90;;
60169;SDS011;46042;49.444;6.862;2023-09-12T02:29:27;17.02;;;9.60;;
60169;SDS011;46042;49.444;6.862;2023-09-12T02:31:55;13.88;;;9.57;;
60169;SDS011;46042;49.444;6.862;2023-09-12T02:34:22;15.27;;;9.25;;
60169;SDS011;46042;49.444;6.862;2023-09-12T02:36:49;26.02;;;11.43;;
60169;SDS011;46042;49.444;6.862;2023-09-12T02:39:15;22.38;;;9.90;;
60169;SDS011;46042;49.444;6.862;2023-09-12T02:41:42;16.75;;;9.60;;
60169;SDS011;46042;49.444;6.862;2023-09-12T02:44:09;27.73;;;11.20;;
60169;SDS011;46042;49.444;6.862;2023-09-12T02:46:36;15.93;;;10.60;;
60169;SDS011;46042;49.444;6.862;2023-09-12T02:49:03;21.98;;;10.43;;
60169;SDS011;46042;49.444;6.862;2023-09-12T02:51:30;22.13;;;10.85;;
60169;SDS011;46042;49.444;6.862;2023-09-12T02:53:57;20.48;;;11.68;;
60169;SDS011;46042;49.444;6.862;2023-09-12T02:56:24;25.00;;;10.88;;
60169;SDS011;46042;49.444;6.862;2023-09-12T02:58:51;25.67;;;10.80;;
60169;SDS011;46042;49.444;6.862;2023-09-12T03:01:18;21.00;;;10.73;;
60169;SDS011;46042;49.444;6.862;2023-09-12T03:03:46;17.75;;;10.75;;
60169;SDS011;46042;49.444;6.862;2023-09-12T03:06:14;21.98;;;11.45;;
60169;SDS011;46042;49.444;6.862;2023-09-12T03:08:41;16.00;;;10.00;;
60169;SDS011;46042;49.444;6.862;2023-09-12T03:11:09;19.58;;;10.60;;
60169;SDS011;46042;49.444;6.862;2023-09-12T03:13:36;20.83;;;10.43;;
60169;SDS011;46042;49.444;6.862;2023-09-12T03:16:04;16.45;;;10.45;;
60169;SDS011;46042;49.444;6.862;2023-09-12T03:18:31;19.15;;;10.00;;
60169;SDS011;46042;49.444;6.862;2023-09-12T03:20:57;18.50;;;10.27;;
60169;SDS011;46042;49.444;6.862;2023-09-12T03:23:24;13.65;;;9.95;;
60169;SDS011;46042;49.444;6.862;2023-09-12T03:25:51;17.10;;;10.00;;
60169;SDS011;46042;49.444;6.862;2023-09-12T03:28:17;23.45;;;10.77;;
60169;SDS011;46042;49.444;6.862;2023-09-12T03:30:44;19.95;;;10.60;;
60169;SDS011;46042;49.444;6.862;2023-09-12T03:33:11;21.90;;;10.40;;
60169;SDS011;46042;49.444;6.862;2023-09-12T03:35:38;28.30;;;10.75;;
60169;SDS011;46042;49.444;6.862;2023-09-12T03:38:04;20.75;;;10.27;;
60169;SDS011;46042;49.444;6.862;2023-09-12T03:40:31;15.93;;;10.95;;
60169;SDS011;46042;49.444;6.862;2023-09-12T03:42:58;14.25;;;10.15;;
60169;SDS011;46042;49.444;6.862;2023-09-12T03:45:25;20.65;;;11.75;;
60169;SDS011;46042;49.444;6.862;2023-09-12T03:47:51;23.13;;;11.88;;
60169;SDS011;46042;49.444;6.862;2023-09-12T03:50:18;23.10;;;12.60;;
60169;SDS011;46042;49.444;6.862;2023-09-12T03:52:45;26.45;;;12.57;;
60169;SDS011;46042;49.444;6.862;2023-09-12T03:55:12;28.13;;;12.13;;
60169;SDS011;46042;49.444;6.862;2023-09-12T03:57:38;30.65;;;11.75;;
60169;SDS011;46042;49.444;6.862;2023-09-12T04:00:05;27.80;;;11.85;;
60169;SDS011;46042;49.444;6.862;2023-09-12T04:02:32;24.73;;;11.50;;
60169;SDS011;46042;49.444;6.862;2023-09-12T04:04:59;24.88;;;12.77;;
60169;SDS011;46042;49.444;6.862;2023-09-12T04:07:26;26.77;;;12.95;;
60169;SDS011;46042;49.444;6.862;2023-09-12T04:09:52;20.63;;;11.32;;
60169;SDS011;46042;49.444;6.862;2023-09-12T04:12:19;20.15;;;11.90;;
60169;SDS011;46042;49.444;6.862;2023-09-12T04:14:47;21.65;;;11.38;;
60169;SDS011;46042;49.444;6.862;2023-09-12T04:17:15;29.52;;;11.70;;
60169;SDS011;46042;49.444;6.862;2023-09-12T04:19:42;21.50;;;11.05;;
60169;SDS011;46042;49.444;6.862;2023-09-12T04:22:09;26.17;;;12.45;;
60169;SDS011;46042;49.444;6.862;2023-09-12T04:24:35;22.40;;;11.90;;
60169;SDS011;46042;49.444;6.862;2023-09-12T04:27:02;21.65;;;12.45;;
60169;SDS011;46042;49.444;6.862;2023-09-12T04:29:34;19.20;;;12.77;;
60169;SDS011;46042;49.444;6.862;2023-09-12T04:32:02;21.30;;;11.77;;
60169;SDS011;46042;49.444;6.862;2023-09-12T04:34:30;19.77;;;12.98;;
60169;SDS011;46042;49.444;6.862;2023-09-12T04:36:59;24.92;;;12.55;;
60169;SDS011;46042;49.444;6.862;2023-09-12T04:39:25;23.20;;;12.50;;
60169;SDS011;46042;49.444;6.862;2023-09-12T04:41:52;28.08;;;15.48;;
60169;SDS011;46042;49.444;6.862;2023-09-12T04:44:19;24.25;;;14.40;;
60169;SDS011;46042;49.444;6.862;2023-09-12T04:46:46;21.67;;;13.40;;
60169;SDS011;46042;49.444;6.862;2023-09-12T04:49:12;24.38;;;12.52;;
60169;SDS011;46042;49.444;6.862;2023-09-12T04:51:39;30.67;;;14.07;;
60169;SDS011;46042;49.444;6.862;2023-09-12T04:54:06;25.42;;;14.07;;
60169;SDS011;46042;49.444;6.862;2023-09-12T04:56:33;25.75;;;13.68;;
60169;SDS011;46042;49.444;6.862;2023-09-12T04:58:59;19.38;;;12.77;;
60169;SDS011;46042;49.444;6.862;2023-09-12T05:01:26;32.92;;;15.40;;
60169;SDS011;46042;49.444;6.862;2023-09-12T05:03:53;33.30;;;19.05;;
60169;SDS011;46042;49.444;6.862;2023-09-12T05:06:19;30.70;;;16.95;;
60169;SDS011;46042;49.444;6.862;2023-09-12T05:08:46;31.30;;;16.00;;
60169;SDS011;46042;49.444;6.862;2023-09-12T05:11:13;35.70;;;15.60;;
60169;SDS011;46042;49.444;6.862;2023-09-12T05:13:40;31.33;;;14.93;;
60169;SDS011;46042;49.444;6.862;2023-09-12T05:16:07;36.33;;;14.52;;
60169;SDS011;46042;49.444;6.862;2023-09-12T05:18:34;32.03;;;13.93;;
60169;SDS011;46042;49.444;6.862;2023-09-12T05:21:01;26.30;;;14.45;;
60169;SDS011;46042;49.444;6.862;2023-09-12T05:23:28;25.52;;;14.15;;
60169;SDS011;46042;49.444;6.862;2023-09-12T05:25:54;25.15;;;13.70;;
60169;SDS011;46042;49.444;6.862;2023-09-12T05:28:21;31.25;;;13.57;;
60169;SDS011;46042;49.444;6.862;2023-09-12T05:30:48;24.85;;;13.50;;
60169;SDS011;46042;49.444;6.862;2023-09-12T05:33:16;22.27;;;13.52;;
60169;SDS011;46042;49.444;6.862;2023-09-12T05:35:43;27.77;;;13.77;;
60169;SDS011;46042;49.444;6.862;2023-09-12T05:38:13;23.42;;;11.82;;
60169;SDS011;46042;49.444;6.862;2023-09-12T05:40:39;29.95;;;15.63;;
60169;SDS011;46042;49.444;6.862;2023-09-12T05:43:06;37.83;;;14.38;;
60169;SDS011;46042;49.444;6.862;2023-09-12T05:45:33;30.23;;;14.48;;
60169;SDS011;46042;49.444;6.862;2023-09-12T05:47:59;36.75;;;16.45;;
60169;SDS011;46042;49.444;6.862;2023-09-12T05:50:26;46.78;;;17.52;;
60169;SDS011;46042;49.444;6.862;2023-09-12T05:52:53;35.30;;;16.58;;
60169;SDS011;46042;49.444;6.862;2023-09-12T05:55:21;38.42;;;17.58;;
60169;SDS011;46042;49.444;6.862;2023-09-12T05:57:48;42.80;;;21.45;;
60169;SDS011;46042;49.444;6.862;2023-09-12T06:02:47;37.17;;;18.60;;
60169;SDS011;46042;49.444;6.862;2023-09-12T06:05:15;30.42;;;18.08;;
60169;SDS011;46042;49.444;6.862;2023-09-12T06:07:42;31.35;;;17.08;;
60169;SDS011;46042;49.444;6.862;2023-09-12T06:10:09;30.08;;;16.65;;
60169;SDS011;46042;49.444;6.862;2023-09-12T06:12:36;33.65;;;18.33;;
60169;SDS011;46042;49.444;6.862;2023-09-12T06:15:03;30.83;;;16.85;;
60169;SDS011;46042;49.444;6.862;2023-09-12T06:17:30;35.03;;;15.75;;
60169;SDS011;46042;49.444;6.862;2023-09-12T06:19:57;25.55;;;15.57;;
60169;SDS011;46042;49.444;6.862;2023-09-12T06:22:24;30.10;;;14.63;;
60169;SDS011;46042;49.444;6.862;2023-09-12T06:24:51;34.95;;;12.98;;
60169;SDS011;46042;49.444;6.862;2023-09-12T06:27:18;23.00;;;13.27;;
60169;SDS011;46042;49.444;6.862;2023-09-12T06:29:46;37.15;;;13.45;;
60169;SDS011;46042;49.444;6.862;2023-09-12T06:32:17;29.90;;;13.32;;
60169;SDS011;46042;49.444;6.862;2023-09-12T06:34:44;29.35;;;12.65;;
60169;SDS011;46042;49.444;6.862;2023-09-12T06:37:11;35.75;;;14.93;;
60169;SDS011;46042;49.444;6.862;2023-09-12T06:39:38;33.30;;;17.92;;
60169;SDS011;46042;49.444;6.862;2023-09-12T06:42:05;39.25;;;20.45;;
60169;SDS011;46042;49.444;6.862;2023-09-12T06:44:32;33.53;;;18.52;;
60169;SDS011;46042;49.444;6.862;2023-09-12T06:46:59;40.10;;;19.25;;
60169;SDS011;46042;49.444;6.862;2023-09-12T06:49:25;38.13;;;18.35;;
60169;SDS011;46042;49.444;6.862;2023-09-12T06:51:52;38.45;;;18.10;;
60169;SDS011;46042;49.444;6.862;2023-09-12T06:54:19;34.08;;;16.13;;
60169;SDS011;46042;49.444;6.862;2023-09-12T06:56:46;31.38;;;17.38;;
60169;SDS011;46042;49.444;6.862;2023-09-12T06:59:13;28.65;;;15.68;;
60169;SDS011;46042;49.444;6.862;2023-09-12T07:01:39;24.35;;;15.48;;
60169;SDS011;46042;49.444;6.862;2023-09-12T07:04:06;39.58;;;16.08;;
60169;SDS011;46042;49.444;6.862;2023-09-12T07:06:33;26.90;;;14.13;;
60169;SDS011;46042;49.444;6.862;2023-09-12T07:09:00;29.27;;;14.85;;
60169;SDS011;46042;49.444;6.862;2023-09-12T07:11:26;29.30;;;14.43;;
60169;SDS011;46042;49.444;6.862;2023-09-12T07:13:53;27.33;;;14.80;;
60169;SDS011;46042;49.444;6.862;2023-09-12T07:16:20;32.88;;;14.43;;
60169;SDS011;46042;49.444;6.862;2023-09-12T07:18:50;43.88;;;15.65;;
60169;SDS011;46042;49.444;6.862;2023-09-12T07:21:17;31.50;;;15.10;;
60169;SDS011;46042;49.444;6.862;2023-09-12T07:23:45;24.00;;;12.98;;
60169;SDS011;46042;49.444;6.862;2023-09-12T07:26:14;30.52;;;13.55;;
60169;SDS011;46042;49.444;6.862;2023-09-12T07:28:41;38.35;;;14.10;;
60169;SDS011;46042;49.444;6.862;2023-09-12T07:31:08;32.05;;;13.68;;
60169;SDS011;46042;49.444;6.862;2023-09-12T07:33:35;30.92;;;14.38;;
60169;SDS011;46042;49.444;6.862;2023-09-12T07:36:02;25.58;;;14.60;;
60169;SDS011;46042;49.444;6.862;2023-09-12T07:38:29;27.80;;;14.85;;
60169;SDS011;46042;49.444;6.862;2023-09-12T07:41:01;24.95;;;13.88;;
60169;SDS011;46042;49.444;6.862;2023-09-12T07:43:29;21.95;;;13.70;;
60169;SDS011;46042;49.444;6.862;2023-09-12T07:45:56;27.27;;;13.10;;
60169;SDS011;46042;49.444;6.862;2023-09-12T07:48:26;24.10;;;13.05;;
60169;SDS011;46042;49.444;6.862;2023-09-12T07:50:54;31.85;;;13.40;;
60169;SDS011;46042;49.444;6.862;2023-09-12T07:53:20;28.42;;;12.85;;
60169;SDS011;46042;49.444;6.862;2023-09-12T07:55:48;28.90;;;13.55;;
60169;SDS011;46042;49.444;6.862;2023-09-12T07:58:16;27.80;;;12.45;;
60169;SDS011;46042;49.444;6.862;2023-09-12T08:03:13;27.08;;;13.68;;
60169;SDS011;46042;49.444;6.862;2023-09-12T08:05:41;33.10;;;15.65;;
60169;SDS011;46042;49.444;6.862;2023-09-12T08:08:08;38.85;;;16.10;;
60169;SDS011;46042;49.444;6.862;2023-09-12T08:10:36;30.65;;;15.20;;
60169;SDS011;46042;49.444;6.862;2023-09-12T08:13:02;42.08;;;16.10;;
60169;SDS011;46042;49.444;6.862;2023-09-12T08:15:29;34.42;;;16.48;;
60169;SDS011;46042;49.444;6.862;2023-09-12T08:17:56;24.85;;;14.68;;
60169;SDS011;46042;49.444;6.862;2023-09-12T08:20:23;31.63;;;15.93;;
60169;SDS011;46042;49.444;6.862;2023-09-12T08:22:50;31.73;;;15.20;;
60169;SDS011;46042;49.444;6.862;2023-09-12T08:25:16;34.97;;;15.45;;
60169;SDS011;46042;49.444;6.862;2023-09-12T08:27:43;27.42;;;14.10;;
60169;SDS011;46042;49.444;6.862;2023-09-12T08:30:11;37.10;;;15.85;;
60169;SDS011;46042;49.444;6.862;2023-09-12T08:32:39;32.25;;;15.18;;
60169;SDS011;46042;49.444;6.862;2023-09-12T08:35:14;33.20;;;15.38;;
60169;SDS011;46042;49.444;6.862;2023-09-12T08:37:41;38.08;;;15.20;;
60169;SDS011;46042;49.444;6.862;2023-09-12T08:40:08;40.40;;;15.73;;
60169;SDS011;46042;49.444;6.862;2023-09-12T08:42:44;36.95;;;16.40;;
60169;SDS011;46042;49.444;6.862;2023-09-12T08:45:15;38.90;;;17.17;;
60169;SDS011;46042;49.444;6.862;2023-09-12T08:47:44;39.92;;;15.48;;
60169;SDS011;46042;49.444;6.862;2023-09-12T08:50:14;36.20;;;17.38;;
60169;SDS011;46042;49.444;6.862;2023-09-12T08:52:43;34.60;;;16.92;;
60169;SDS011;46042;49.444;6.862;2023-09-12T08:55:31;51.25;;;18.75;;
60169;SDS011;46042;49.444;6.862;2023-09-12T08:58:02;39.97;;;16.90;;
60169;SDS011;46042;49.444;6.862;2023-09-12T09:00:29;38.05;;;16.38;;
60169;SDS011;46042;49.444;6.862;2023-09-12T09:02:57;41.58;;;17.13;;
60169;SDS011;46042;49.444;6.862;2023-09-12T09:05:24;35.97;;;17.08;;
60169;SDS011;46042;49.444;6.862;2023-09-12T09:07:53;35.08;;;17.55;;
60169;SDS011;46042;49.444;6.862;2023-09-12T09:10:22;40.20;;;18.05;;
60169;SDS011;46042;49.444;6.862;2023-09-12T09:13:07;33.92;;;16.08;;
60169;SDS011;46042;49.444;6.862;2023-09-12T09:15:36;45.67;;;16.60;;
60169;SDS011;46042;49.444;6.862;2023-09-12T09:18:08;34.75;;;16.52;;
60169;SDS011;46042;49.444;6.862;2023-09-12T09:20:37;36.03;;;16.35;;
60169;SDS011;46042;49.444;6.862;2023-09-12T09:23:06;45.67;;;16.92;;
60169;SDS011;46042;49.444;6.862;2023-09-12T09:25:36;37.13;;;18.42;;
60169;SDS011;46042;49.444;6.862;2023-09-12T09:28:16;45.72;;;16.10;;
60169;SDS011;46042;49.444;6.862;2023-09-12T09:30:44;41.33;;;16.95;;
60169;SDS011;46042;49.444;6.862;2023-09-12T09:33:12;43.25;;;17.80;;
60169;SDS011;46042;49.444;6.862;2023-09-12T09:35:41;35.15;;;17.40;;
60169;SDS011;46042;49.444;6.862;2023-09-12T09:38:08;36.00;;;15.43;;
60169;SDS011;46042;49.444;6.862;2023-09-12T09:40:36;46.65;;;19.00;;
60169;SDS011;46042;49.444;6.862;2023-09-12T09:43:03;60.45;;;19.45;;
60169;SDS011;46042;49.444;6.862;2023-09-12T09:45:30;43.65;;;19.75;;
60169;SDS011;46042;49.444;6.862;2023-09-12T09:48:07;40.28;;;19.33;;
60169;SDS011;46042;49.444;6.862;2023-09-12T09:50:37;45.92;;;19.65;;
60169;SDS011;46042;49.444;6.862;2023-09-12T09:53:04;37.15;;;17.90;;
60169;SDS011;46042;49.444;6.862;2023-09-12T09:55:34;43.28;;;18.85;;
60169;SDS011;46042;49.444;6.862;2023-09-12T09:58:02;37.45;;;18.02;;
60169;SDS011;46042;49.444;6.862;2023-09-12T10:00:29;36.72;;;17.73;;
60169;SDS011;46042;49.444;6.862;2023-09-12T10:02:59;31.50;;;18.08;;
60169;SDS011;46042;49.444;6.862;2023-09-12T10:05:33;37.03;;;16.52;;
60169;SDS011;46042;49.444;6.862;2023-09-12T10:10:32;43.35;;;19.50;;
60169;SDS011;46042;49.444;6.862;2023-09-12T10:13:01;39.03;;;17.08;;
60169;SDS011;46042;49.444;6.862;2023-09-12T10:15:30;32.08;;;15.23;;
60169;SDS011;46042;49.444;6.862;2023-09-12T10:17:58;31.92;;;16.15;;
60169;SDS011;46042;49.444;6.862;2023-09-12T10:20:37;36.75;;;16.15;;
60169;SDS011;46042;49.444;6.862;2023-09-12T10:23:16;37.47;;;15.75;;
60169;SDS011;46042;49.444;6.862;2023-09-12T10:25:49;32.30;;;16.23;;
60169;SDS011;46042;49.444;6.862;2023-09-12T10:28:17;29.88;;;14.93;;
60169;SDS011;46042;49.444;6.862;2023-09-12T10:30:44;39.20;;;15.20;;
60169;SDS011;46042;49.444;6.862;2023-09-12T10:33:11;38.92;;;16.70;;
60169;SDS011;46042;49.444;6.862;2023-09-12T10:35:39;29.75;;;16.25;;
60169;SDS011;46042;49.444;6.862;2023-09-12T10:38:07;24.95;;;14.05;;
60169;SDS011;46042;49.444;6.862;2023-09-12T10:40:35;25.10;;;12.38;;
60169;SDS011;46042;49.444;6.862;2023-09-12T10:43:10;22.60;;;12.98;;
60169;SDS011;46042;49.444;6.862;2023-09-12T10:45:38;22.50;;;13.07;;
60169;SDS011;46042;49.444;6.862;2023-09-12T10:48:09;19.63;;;11.65;;
60169;SDS011;46042;49.444;6.862;2023-09-12T10:50:37;24.67;;;13.45;;
60169;SDS011;46042;49.444;6.862;2023-09-12T10:53:12;31.40;;;13.07;;
60169;SDS011;46042;49.444;6.862;2023-09-12T10:55:40;18.45;;;12.90;;
60169;SDS011;46042;49.444;6.862;2023-09-12T10:58:09;16.17;;;12.20;;
60169;SDS011;46042;49.444;6.862;2023-09-12T11:00:37;21.75;;;12.95;;
60169;SDS011;46042;49.444;6.862;2023-09-12T11:05:55;30.90;;;13.55;;
60169;SDS011;46042;49.444;6.862;2023-09-12T11:08:22;24.10;;;11.93;;
60169;SDS011;46042;49.444;6.862;2023-09-12T11:14:03;20.42;;;12.20;;
60169;SDS011;46042;49.444;6.862;2023-09-12T11:16:32;16.92;;;10.70;;
60169;SDS011;46042;49.444;6.862;2023-09-12T11:21:50;17.98;;;13.13;;
60169;SDS011;46042;49.444;6.862;2023-09-12T11:24:17;15.00;;;11.77;;
60169;SDS011;46042;49.444;6.862;2023-09-12T11:26:52;27.25;;;11.82;;
60169;SDS011;46042;49.444;6.862;2023-09-12T11:29:27;21.10;;;11.63;;
60169;SDS011;46042;49.444;6.862;2023-09-12T11:31:56;17.60;;;11.70;;
60169;SDS011;46042;49.444;6.862;2023-09-12T11:34:27;17.33;;;12.18;;
60169;SDS011;46042;49.444;6.862;2023-09-12T11:36:55;23.23;;;11.45;;
60169;SDS011;46042;49.444;6.862;2023-09-12T11:39:24;18.67;;;11.80;;
60169;SDS011;46042;49.444;6.862;2023-09-12T11:41:52;19.55;;;12.93;;
60169;SDS011;46042;49.444;6.862;2023-09-12T11:44:21;17.40;;;11.27;;
60169;SDS011;46042;49.444;6.862;2023-09-12T11:46:49;20.75;;;11.68;;
60169;SDS011;46042;49.444;6.862;2023-09-12T11:49:16;20.33;;;12.23;;
60169;SDS011;46042;49.444;6.862;2023-09-12T11:51:48;22.05;;;11.75;;
60169;SDS011;46042;49.444;6.862;2023-09-12T11:54:19;15.30;;;11.43;;
60169;SDS011;46042;49.444;6.862;2023-09-12T11:56:50;25.58;;;13.07;;
60169;SDS011;46042;49.444;6.862;2023-09-12T11:59:23;19.88;;;11.55;;
60169;SDS011;46042;49.444;6.862;2023-09-12T12:01:50;22.48;;;12.82;;
60169;SDS011;46042;49.444;6.862;2023-09-12T12:04:16;16.20;;;11.20;;
60169;SDS011;46042;49.444;6.862;2023-09-12T12:06:43;19.25;;;10.88;;
60169;SDS011;46042;49.444;6.862;2023-09-12T12:09:10;25.63;;;12.02;;
60169;SDS011;46042;49.444;6.862;2023-09-12T12:11:37;21.63;;;12.38;;
60169;SDS011;46042;49.444;6.862;2023-09-12T12:14:09;15.63;;;11.48;;
60169;SDS011;46042;49.444;6.862;2023-09-12T12:16:37;17.30;;;11.05;;
60169;SDS011;46042;49.444;6.862;2023-09-12T12:19:04;18.55;;;11.60;;
60169;SDS011;46042;49.444;6.862;2023-09-12T12:21:31;17.38;;;11.32;;
60169;SDS011;46042;49.444;6.862;2023-09-12T12:24:01;17.48;;;11.55;;
60169;SDS011;46042;49.444;6.862;2023-09-12T12:26:29;16.13;;;11.48;;
60169;SDS011;46042;49.444;6.862;2023-09-12T12:28:58;20.98;;;11.32;;
60169;SDS011;46042;49.444;6.862;2023-09-12T12:31:26;15.70;;;10.07;;
60169;SDS011;46042;49.444;6.862;2023-09-12T12:33:56;24.40;;;11.45;;
60169;SDS011;46042;49.444;6.862;2023-09-12T12:36:43;16.10;;;10.23;;
60169;SDS011;46042;49.444;6.862;2023-09-12T12:39:21;16.65;;;9.85;;
60169;SDS011;46042;49.444;6.862;2023-09-12T12:41:51;13.55;;;10.68;;
60169;SDS011;46042;49.444;6.862;2023-09-12T12:44:19;17.85;;;9.60;;
60169;SDS011;46042;49.444;6.862;2023-09-12T12:46:47;12.45;;;9.75;;
60169;SDS011;46042;49.444;6.862;2023-09-12T12:49:21;11.35;;;9.27;;
60169;SDS011;46042;49.444;6.862;2023-09-12T12:51:49;13.23;;;10.23;;
60169;SDS011;46042;49.444;6.862;2023-09-12T12:54:16;19.05;;;11.48;;
60169;SDS011;46042;49.444;6.862;2023-09-12T12:56:43;19.10;;;10.55;;
60169;SDS011;46042;49.444;6.862;2023-09-12T12:59:11;17.02;;;10.82;;
60169;SDS011;46042;49.444;6.862;2023-09-12T13:01:38;15.32;;;10.48;;
60169;SDS011;46042;49.444;6.862;2023-09-12T13:04:06;12.13;;;10.73;;
60169;SDS011;46042;49.444;6.862;2023-09-12T13:06:34;17.58;;;10.10;;
60169;SDS011;46042;49.444;6.862;2023-09-12T13:09:03;17.45;;;10.60;;
60169;SDS011;46042;49.444;6.862;2023-09-12T13:11:34;14.88;;;10.10;;
60169;SDS011;46042;49.444;6.862;2023-09-12T13:14:02;13.35;;;9.68;;
60169;SDS011;46042;49.444;6.862;2023-09-12T13:16:35;14.90;;;9.13;;
60169;SDS011;46042;49.444;6.862;2023-09-12T13:19:03;19.67;;;8.98;;
60169;SDS011;46042;49.444;6.862;2023-09-12T13:21:30;22.67;;;11.60;;
60169;SDS011;46042;49.444;6.862;2023-09-12T13:23:59;13.02;;;9.70;;
60169;SDS011;46042;49.444;6.862;2023-09-12T13:26:28;19.45;;;10.60;;
60169;SDS011;46042;49.444;6.862;2023-09-12T13:28:55;17.60;;;9.98;;
60169;SDS011;46042;49.444;6.862;2023-09-12T13:31:23;13.65;;;8.88;;
60169;SDS011;46042;49.444;6.862;2023-09-12T13:33:50;12.75;;;8.68;;
60169;SDS011;46042;49.444;6.862;2023-09-12T13:36:17;13.20;;;8.75;;
60169;SDS011;46042;49.444;6.862;2023-09-12T13:38:43;16.20;;;8.98;;
60169;SDS011;46042;49.444;6.862;2023-09-12T13:41:12;11.25;;;7.70;;
60169;SDS011;46042;49.444;6.862;2023-09-12T13:43:39;16.60;;;8.40;;
60169;SDS011;46042;49.444;6.862;2023-09-12T13:46:06;10.38;;;7.85;;
60169;SDS011;46042;49.444;6.862;2023-09-12T13:48:36;13.67;;;7.87;;
60169;SDS011;46042;49.444;6.862;2023-09-12T13:51:03;14.85;;;8.93;;
60169;SDS011;46042;49.444;6.862;2023-09-12T13:53:30;12.43;;;8.23;;
60169;SDS011;46042;49.444;6.862;2023-09-12T13:55:57;14.00;;;9.15;;
60169;SDS011;46042;49.444;6.862;2023-09-12T13:58:26;10.00;;;8.38;;
60169;SDS011;46042;49.444;6.862;2023-09-12T14:01:05;13.77;;;8.82;;
60169;SDS011;46042;49.444;6.862;2023-09-12T14:03:32;13.15;;;8.38;;
60169;SDS011;46042;49.444;6.862;2023-09-12T14:05:59;18.50;;;8.32;;
60169;SDS011;46042;49.444;6.862;2023-09-12T14:08:26;16.00;;;6.88;;
60169;SDS011;46042;49.444;6.862;2023-09-12T14:10:53;13.05;;;8.43;;
60169;SDS011;46042;49.444;6.862;2023-09-12T14:13:21;13.98;;;7.63;;
60169;SDS011;46042;49.444;6.862;2023-09-12T14:15:49;9.10;;;7.72;;
60169;SDS011;46042;49.444;6.862;2023-09-12T14:18:17;10.75;;;7.90;;
60169;SDS011;46042;49.444;6.862;2023-09-12T14:20:46;11.18;;;7.60;;
60169;SDS011;46042;49.444;6.862;2023-09-12T14:23:14;17.60;;;8.98;;
60169;SDS011;46042;49.444;6.862;2023-09-12T14:25:41;14.27;;;8.23;;
60169;SDS011;46042;49.444;6.862;2023-09-12T14:28:08;16.85;;;8.27;;
60169;SDS011;46042;49.444;6.862;2023-09-12T14:30:37;14.05;;;7.53;;
60169;SDS011;46042;49.444;6.862;2023-09-12T14:33:04;16.52;;;7.50;;
60169;SDS011;46042;49.444;6.862;2023-09-12T14:35:31;17.85;;;7.95;;
60169;SDS011;46042;49.444;6.862;2023-09-12T14:37:58;13.85;;;7.68;;
60169;SDS011;46042;49.444;6.862;2023-09-12T14:40:26;12.27;;;7.85;;
60169;SDS011;46042;49.444;6.862;2023-09-12T14:42:54;13.93;;;7.88;;
60169;SDS011;46042;49.444;6.862;2023-09-12T14:45:21;14.23;;;7.22;;
60169;SDS011;46042;49.444;6.862;2023-09-12T14:47:48;14.02;;;8.68;;
60169;SDS011;46042;49.444;6.862;2023-09-12T14:50:15;9.60;;;7.45;;
60169;SDS011;46042;49.444;6.862;2023-09-12T14:52:42;11.35;;;6.90;;